createdAt,value
2022-09-15T00:02:35.902Z,61.77
2022-09-15T00:05:38.580Z,61.08
2022-09-15T00:08:41.688Z,61.95
2022-09-15T00:11:44.353Z,61.86
2022-09-15T00:14:47.088Z,61.38
2022-09-15T00:17:52.039Z,61.33
2022-09-15T00:20:54.804Z,61.20
2022-09-15T00:23:57.820Z,61.52
2022-09-15T00:27:00.571Z,61.09
2022-09-15T00:30:03.312Z,61.68
2022-09-15T00:33:07.544Z,61.29
2022-09-15T00:36:11.516Z,60.66
2022-09-15T00:39:14.146Z,61.16
2022-09-15T00:42:18.075Z,60.70
2022-09-15T00:45:20.746Z,60.90
2022-09-15T00:48:26.910Z,60.09
2022-09-15T00:51:34.906Z,60.76
2022-09-15T00:54:40.543Z,61.08
2022-09-15T00:57:46.915Z,61.26
2022-09-15T01:00:52.503Z,60.60
2022-09-15T01:03:56.671Z,60.59
2022-09-15T01:07:01.468Z,60.73
2022-09-15T01:10:07.595Z,61.03
2022-09-15T01:13:11.524Z,61.12
2022-09-15T01:16:16.578Z,60.96
2022-09-15T01:19:37.368Z,60.52
2022-09-15T01:22:48.543Z,61.59
2022-09-15T01:26:05.700Z,61.84
2022-09-15T01:29:23.845Z,61.28
2022-09-15T01:32:47.540Z,61.81
2022-09-15T01:35:53.520Z,62.51
2022-09-15T01:39:01.050Z,62.00
2022-09-15T01:42:06.276Z,62.07
2022-09-15T01:45:12.303Z,61.88
2022-09-15T01:48:15.076Z,61.01
2022-09-15T01:51:17.908Z,60.46
2022-09-15T01:54:22.188Z,61.48
2022-09-15T01:57:24.924Z,61.85
2022-09-15T02:00:30.347Z,60.68
2022-09-15T02:03:36.176Z,61.81
2022-09-15T02:06:40.720Z,62.17
2022-09-15T02:09:45.905Z,62.18
2022-09-15T02:12:53.391Z,61.46
2022-09-15T02:16:00.147Z,62.36
2022-09-15T02:19:11.233Z,60.59
2022-09-15T02:22:17.711Z,61.39
2022-09-15T02:25:22.697Z,61.28
2022-09-15T02:28:28.809Z,62.50
2022-09-15T02:31:36.305Z,61.90
2022-09-15T02:34:41.496Z,62.87
2022-09-15T02:37:44.389Z,62.68
2022-09-15T02:40:47.900Z,62.25
2022-09-15T02:43:51.419Z,62.66
2022-09-15T02:46:55.571Z,61.30
2022-09-15T02:49:58.187Z,62.40
2022-09-15T02:53:00.897Z,62.60
2022-09-15T02:56:04.764Z,61.85
2022-09-15T02:59:07.477Z,61.40
2022-09-15T03:02:12.649Z,62.14
2022-09-15T03:05:16.474Z,62.84
2022-09-15T03:08:19.212Z,62.48
2022-09-15T03:11:22.902Z,61.96
2022-09-15T03:14:25.661Z,61.81
2022-09-15T03:17:29.925Z,60.87
2022-09-15T03:20:32.612Z,62.24
2022-09-15T03:23:35.407Z,62.54
2022-09-15T03:26:38.111Z,63.03
2022-09-15T03:29:40.758Z,60.95
2022-09-15T03:32:44.877Z,60.77
2022-09-15T03:35:47.616Z,61.82
2022-09-15T03:38:50.307Z,62.49
2022-09-15T03:41:52.972Z,62.08
2022-09-15T03:44:55.640Z,61.23
2022-09-15T03:47:59.713Z,61.69
2022-09-15T03:51:02.558Z,63.18
2022-09-15T03:54:05.390Z,61.40
2022-09-15T03:57:08.026Z,63.46
2022-09-15T04:00:11.376Z,63.19
2022-09-15T04:03:15.664Z,62.96
2022-09-15T04:06:18.619Z,62.58
2022-09-15T04:09:21.561Z,62.63
2022-09-15T04:12:24.247Z,62.58
2022-09-15T04:15:26.934Z,62.20
2022-09-15T04:18:31.002Z,63.05
2022-09-15T04:21:33.765Z,62.80
2022-09-15T04:24:36.567Z,63.59
2022-09-15T04:27:39.518Z,63.00
2022-09-15T04:30:42.158Z,62.94
2022-09-15T04:33:46.968Z,63.28
2022-09-15T04:36:49.837Z,63.51
2022-09-15T04:39:52.630Z,62.98
2022-09-15T04:42:55.524Z,62.95
2022-09-15T04:45:58.333Z,63.30
2022-09-15T04:49:02.434Z,61.91
2022-09-15T04:52:09.454Z,61.60
2022-09-15T04:55:12.454Z,61.63
2022-09-15T04:58:15.144Z,62.62
2022-09-15T05:01:19.131Z,61.35
2022-09-15T05:04:23.338Z,61.59
2022-09-15T05:07:26.500Z,63.43
2022-09-15T05:10:29.161Z,63.00
2022-09-15T05:13:32.005Z,63.75
2022-09-15T05:16:34.762Z,62.79
2022-09-15T05:19:41.495Z,60.82
2022-09-15T05:22:44.201Z,61.31
2022-09-15T05:25:55.051Z,62.26
2022-09-15T05:28:58.289Z,61.82
2022-09-15T05:32:00.954Z,60.56
2022-09-15T05:35:06.859Z,63.55
2022-09-15T05:38:09.580Z,62.40
2022-09-15T05:41:13.021Z,62.51
2022-09-15T05:44:15.738Z,60.80
2022-09-15T05:47:18.480Z,62.74
2022-09-15T05:50:22.478Z,61.95
2022-09-15T05:53:25.601Z,60.19
2022-09-15T05:56:28.352Z,61.53
2022-09-15T05:59:31.037Z,60.45
2022-09-15T06:02:33.802Z,61.94
2022-09-15T06:05:37.885Z,61.20
2022-09-15T06:08:44.467Z,61.04
2022-09-15T06:11:47.852Z,61.40
2022-09-15T06:14:53.565Z,60.12
2022-09-15T06:17:56.441Z,60.13
2022-09-15T06:21:03.664Z,60.80
2022-09-15T06:24:07.211Z,60.38
2022-09-15T06:27:10.273Z,58.91
2022-09-15T06:30:13.433Z,59.51
2022-09-15T06:33:16.528Z,59.53
2022-09-15T06:36:21.306Z,58.86
2022-09-15T06:39:24.670Z,58.76
2022-09-15T06:42:27.445Z,58.47
2022-09-15T06:45:30.556Z,59.11
2022-09-15T06:48:33.535Z,59.19
2022-09-15T06:51:38.914Z,59.05
2022-09-15T06:54:41.640Z,58.17
2022-09-15T06:57:44.532Z,56.80
2022-09-15T07:00:47.510Z,56.09
2022-09-15T07:03:50.305Z,55.51
2022-09-15T07:06:54.336Z,55.87
2022-09-15T07:09:57.067Z,56.77
2022-09-15T07:13:01.323Z,56.50
2022-09-15T07:16:05.131Z,55.72
2022-09-15T07:19:07.879Z,57.01
2022-09-15T07:22:13.056Z,57.24
2022-09-15T07:25:15.794Z,57.23
2022-09-15T07:28:19.190Z,56.33
2022-09-15T07:31:23.742Z,55.28
2022-09-15T07:34:26.425Z,56.02
2022-09-15T07:37:30.539Z,54.27
2022-09-15T07:40:34.256Z,53.63
2022-09-15T07:43:37.329Z,55.21
2022-09-15T07:46:40.049Z,54.83
2022-09-15T07:49:43.382Z,55.19
2022-09-15T07:52:47.497Z,54.15
2022-09-15T07:55:53.162Z,54.41
2022-09-15T07:58:55.886Z,54.20
2022-09-15T08:01:59.239Z,53.71
2022-09-15T08:05:02.027Z,52.95
2022-09-15T08:08:06.138Z,53.37
2022-09-15T08:11:08.966Z,54.07
2022-09-15T08:14:11.854Z,54.42
2022-09-15T08:17:14.544Z,54.36
2022-09-15T08:20:17.305Z,53.96
2022-09-15T08:23:23.042Z,53.37
2022-09-15T08:26:26.404Z,53.42
2022-09-15T08:29:29.327Z,55.30
2022-09-15T08:32:32.124Z,53.94
2022-09-15T08:35:36.924Z,54.42
2022-09-15T08:38:41.879Z,53.48
2022-09-15T08:41:45.379Z,53.47
2022-09-15T08:44:51.339Z,53.58
2022-09-15T08:47:56.208Z,53.25
2022-09-15T08:51:00.747Z,52.90
2022-09-15T08:54:08.624Z,52.01
2022-09-15T08:57:14.851Z,51.73
2022-09-15T09:00:17.992Z,52.25
2022-09-15T09:03:30.242Z,52.30
2022-09-15T09:06:37.125Z,53.05
2022-09-15T09:09:43.907Z,53.25
2022-09-15T09:12:52.103Z,53.32
2022-09-15T09:16:05.384Z,53.63
2022-09-15T09:19:16.458Z,53.54
2022-09-15T09:22:21.827Z,53.15
2022-09-15T09:25:27.924Z,52.67
2022-09-15T09:28:32.328Z,52.67
2022-09-15T09:31:36.249Z,52.69
2022-09-15T09:34:44.370Z,52.90
2022-09-15T09:37:47.368Z,52.83
2022-09-15T09:40:52.104Z,53.11
2022-09-15T09:43:56.875Z,53.69
2022-09-15T09:46:59.849Z,53.50
2022-09-15T09:50:03.537Z,53.41
2022-09-15T09:53:20.111Z,53.09
2022-09-15T09:56:25.356Z,53.21
2022-09-15T09:59:35.840Z,53.59
2022-09-15T10:02:47.364Z,53.56
2022-09-15T10:06:02.729Z,53.27
2022-09-15T10:09:10.361Z,52.99
2022-09-15T10:12:20.080Z,53.06
2022-09-15T10:15:24.190Z,53.62
2022-09-15T10:18:29.265Z,53.53
2022-09-15T10:21:31.966Z,52.53
2022-09-15T10:24:35.620Z,52.77
2022-09-15T10:27:39.751Z,52.48
2022-09-15T10:30:59.078Z,52.85
2022-09-15T10:34:21.737Z,54.74
2022-09-15T10:37:28.283Z,54.80
2022-09-15T10:40:35.398Z,52.89
2022-09-15T10:43:45.501Z,55.37
2022-09-15T10:46:51.805Z,54.16
2022-09-15T10:50:08.940Z,55.76
2022-09-15T10:53:16.268Z,53.89
2022-09-15T10:56:25.577Z,55.27
2022-09-15T10:59:35.323Z,55.46
2022-09-15T11:02:50.558Z,55.34
2022-09-15T11:06:06.434Z,56.92
2022-09-15T11:09:20.115Z,56.59
2022-09-15T11:12:29.405Z,55.37
2022-09-15T11:15:47.361Z,53.86
2022-09-15T11:19:00.668Z,56.80
2022-09-15T11:22:08.420Z,53.75
2022-09-15T11:25:14.813Z,55.62
2022-09-15T11:28:21.042Z,55.71
2022-09-15T11:31:27.872Z,57.53
2022-09-15T11:34:34.453Z,53.93
2022-09-15T11:37:40.228Z,54.59
2022-09-15T11:40:47.680Z,56.07
2022-09-15T11:44:08.058Z,56.20
2022-09-15T11:47:31.702Z,55.19
2022-09-15T11:50:36.374Z,54.83
2022-09-15T11:53:41.920Z,57.42
2022-09-15T11:56:46.117Z,55.36
2022-09-15T11:59:52.407Z,56.18
2022-09-15T12:03:01.622Z,55.81
2022-09-15T12:06:08.695Z,55.77
2022-09-15T12:09:13.425Z,55.11
2022-09-15T12:12:18.841Z,56.16
2022-09-15T12:15:27.439Z,56.18
2022-09-15T12:18:40.166Z,56.44
2022-09-15T12:21:54.800Z,54.38
2022-09-15T12:25:01.254Z,56.13
2022-09-15T12:28:24.464Z,56.70
2022-09-15T12:31:28.815Z,57.39
2022-09-15T12:34:38.521Z,56.31
2022-09-15T12:37:44.110Z,56.98
2022-09-15T12:40:46.838Z,56.09
2022-09-15T12:43:53.056Z,55.90
2022-09-15T12:46:57.226Z,57.42
2022-09-15T12:50:03.350Z,57.89
2022-09-15T12:53:16.795Z,58.20
2022-09-15T12:56:23.685Z,57.50
2022-09-15T12:59:28.024Z,59.42
2022-09-15T13:02:44.407Z,60.04
2022-09-15T13:06:08.154Z,59.38
2022-09-15T13:09:26.852Z,58.86
2022-09-15T13:12:32.661Z,60.53
2022-09-15T13:15:40.386Z,60.97
2022-09-15T13:18:44.461Z,62.22
2022-09-15T13:21:50.649Z,61.37
2022-09-15T13:24:59.268Z,60.43
2022-09-15T13:28:05.010Z,58.90
2022-09-15T13:31:17.485Z,59.30
2022-09-15T13:35:05.817Z,92.39
2022-09-15T13:38:30.691Z,100.00
2022-09-15T13:41:45.877Z,100.00
2022-09-15T13:45:00.792Z,100.00
2022-09-15T13:48:10.541Z,100.00
2022-09-15T13:51:16.639Z,100.00
2022-09-15T13:54:23.629Z,100.00
2022-09-15T14:01:00.879Z,74.73
2022-09-15T14:04:05.842Z,66.08
2022-09-15T14:07:21.232Z,62.88
2022-09-15T14:10:26.044Z,60.67
2022-09-15T14:13:32.252Z,61.27
2022-09-15T14:16:36.085Z,61.26
2022-09-15T14:19:39.780Z,60.38
2022-09-15T14:22:42.412Z,61.85
2022-09-15T14:25:46.409Z,61.48
2022-09-15T14:28:52.443Z,61.54
2022-09-15T14:32:00.783Z,60.36
2022-09-15T14:35:05.637Z,59.64
2022-09-15T14:38:11.150Z,59.28
2022-09-15T14:41:19.975Z,59.90
2022-09-15T14:47:59.765Z,61.00
2022-09-15T14:51:03.818Z,60.68
2022-09-15T14:54:07.362Z,59.00
2022-09-15T14:57:10.435Z,59.73
2022-09-15T15:00:17.856Z,58.57
2022-09-15T15:03:25.097Z,59.61
2022-09-15T15:06:32.046Z,60.71
2022-09-15T15:09:38.936Z,60.58
2022-09-15T15:12:43.116Z,60.88
2022-09-15T15:15:47.684Z,60.90
2022-09-15T15:18:51.554Z,60.42
2022-09-15T15:21:54.269Z,61.33
2022-09-15T15:24:56.937Z,60.74
2022-09-15T15:28:00.447Z,62.15
2022-09-15T15:31:13.845Z,59.92
2022-09-15T15:34:24.132Z,60.65
2022-09-15T15:37:28.122Z,60.04
2022-09-15T15:40:32.403Z,59.71
2022-09-15T15:43:35.894Z,59.56
2022-09-15T15:46:56.531Z,60.50
2022-09-15T15:50:12.799Z,59.73
2022-09-15T15:53:17.281Z,61.67
2022-09-15T15:56:25.673Z,61.80
2022-09-15T15:59:28.465Z,58.76
2022-09-15T16:02:34.439Z,58.40
2022-09-15T16:05:40.291Z,59.00
2022-09-15T16:08:44.971Z,59.91
2022-09-15T16:11:47.855Z,61.35
2022-09-15T16:14:50.582Z,61.83
2022-09-15T16:17:55.493Z,60.78
2022-09-15T16:20:58.136Z,62.67
2022-09-15T16:24:00.846Z,60.97
2022-09-15T16:27:04.523Z,60.12
2022-09-15T16:30:08.429Z,62.11
2022-09-15T16:33:13.975Z,60.96
2022-09-15T16:36:20.720Z,62.15
2022-09-15T16:39:23.608Z,61.02
2022-09-15T16:42:26.655Z,61.16
2022-09-15T16:45:38.200Z,60.93
2022-09-15T16:48:44.170Z,61.69
2022-09-15T16:51:48.234Z,63.63
2022-09-15T16:54:50.999Z,63.04
2022-09-15T16:57:57.800Z,62.32
2022-09-15T17:01:02.176Z,62.58
2022-09-15T17:04:10.133Z,63.87
2022-09-15T17:07:15.969Z,63.44
2022-09-15T17:10:20.758Z,64.15
2022-09-15T17:13:27.760Z,64.62
2022-09-15T17:16:35.464Z,64.42
2022-09-15T17:19:38.120Z,64.84
2022-09-15T17:22:45.996Z,63.92
2022-09-15T17:25:53.341Z,64.68
2022-09-15T17:28:58.239Z,64.35
2022-09-15T17:32:01.142Z,65.32
2022-09-15T17:35:15.603Z,63.72
2022-09-15T17:38:21.967Z,63.75
2022-09-15T17:41:24.915Z,63.01
2022-09-15T17:44:30.594Z,62.09
2022-09-15T17:47:35.781Z,63.01
2022-09-15T17:50:39.040Z,62.30
2022-09-15T17:53:47.416Z,61.56
2022-09-15T17:56:57.136Z,63.13
2022-09-15T18:00:09.198Z,62.50
2022-09-15T18:03:19.387Z,63.98
2022-09-15T18:06:22.494Z,63.76
2022-09-15T18:09:31.607Z,62.85
2022-09-15T18:12:35.820Z,78.36
2022-09-15T18:15:42.053Z,76.93
2022-09-15T18:18:45.981Z,65.81
2022-09-15T18:21:52.896Z,63.71
2022-09-15T18:25:01.317Z,64.58
2022-09-15T18:28:09.536Z,65.22
2022-09-15T18:31:19.161Z,63.82
2022-09-15T18:34:22.744Z,62.36
2022-09-15T18:37:32.121Z,62.91
2022-09-15T18:40:41.700Z,62.21
2022-09-15T18:43:49.602Z,61.74
2022-09-15T18:46:53.041Z,61.02
2022-09-15T18:49:56.064Z,60.89
2022-09-15T18:53:02.628Z,60.70
2022-09-15T18:56:15.064Z,60.52
2022-09-15T18:59:21.813Z,60.56
2022-09-15T19:02:26.537Z,59.49
2022-09-15T19:05:30.223Z,60.03
2022-09-15T19:08:34.529Z,59.89
2022-09-15T19:11:42.436Z,59.46
2022-09-15T19:14:46.838Z,59.62
2022-09-15T19:17:49.869Z,59.60
2022-09-15T19:20:53.258Z,59.93
2022-09-15T19:23:57.151Z,59.97
2022-09-15T19:27:03.167Z,60.16
2022-09-15T19:30:07.290Z,59.94
2022-09-15T19:33:18.641Z,59.83
2022-09-15T19:36:29.138Z,59.64
2022-09-15T19:39:33.567Z,60.51
2022-09-15T19:42:40.972Z,60.07
2022-09-15T19:45:44.474Z,58.38
2022-09-15T19:48:47.927Z,58.02
2022-09-15T19:51:55.716Z,59.08
2022-09-15T19:54:58.511Z,59.76
2022-09-15T19:58:02.635Z,60.11
2022-09-15T20:01:05.397Z,59.95
2022-09-15T20:04:08.693Z,59.70
2022-09-15T20:07:12.549Z,59.71
2022-09-15T20:10:15.731Z,59.50
2022-09-15T20:13:20.454Z,59.91
2022-09-15T20:16:24.277Z,58.96
2022-09-15T20:19:27.063Z,59.31
2022-09-15T20:22:29.776Z,59.46
2022-09-15T20:25:32.687Z,59.69
2022-09-15T20:28:37.246Z,59.29
2022-09-15T20:31:39.958Z,59.20
2022-09-15T20:34:43.015Z,59.13
2022-09-15T20:37:45.727Z,58.74
2022-09-15T20:40:48.425Z,58.87
2022-09-15T20:43:52.469Z,59.27
2022-09-15T20:46:55.195Z,59.17
2022-09-15T20:49:57.850Z,59.25
2022-09-15T20:53:00.564Z,59.30
2022-09-15T20:56:04.638Z,59.12
2022-09-15T20:59:10.579Z,57.99
2022-09-15T21:02:13.358Z,57.59
2022-09-15T21:05:16.107Z,57.35
2022-09-15T21:08:18.789Z,59.06
2022-09-15T21:11:21.920Z,58.84
2022-09-15T21:14:25.972Z,58.83
2022-09-15T21:17:29.019Z,58.55
2022-09-15T21:20:31.680Z,58.91
2022-09-15T21:23:35.473Z,58.97
2022-09-15T21:27:01.026Z,59.06
2022-09-15T21:30:05.426Z,58.70
2022-09-15T21:33:08.307Z,58.98
2022-09-15T21:36:12.084Z,58.98
2022-09-15T21:39:14.748Z,59.02
2022-09-15T21:42:17.520Z,59.97
2022-09-15T21:45:21.535Z,59.21
2022-09-15T21:48:24.412Z,59.00
2022-09-15T21:51:27.947Z,59.10
2022-09-15T21:54:31.536Z,58.91
2022-09-15T21:57:34.205Z,58.89
2022-09-15T22:00:40.224Z,58.58
2022-09-15T22:03:43.397Z,58.59
2022-09-15T22:06:47.319Z,59.07
2022-09-15T22:09:49.966Z,58.48
2022-09-15T22:12:53.063Z,58.22
2022-09-15T22:16:02.471Z,58.22
2022-09-15T22:19:05.436Z,58.11
2022-09-15T22:22:08.346Z,58.53
2022-09-15T22:25:11.122Z,58.21
2022-09-15T22:28:13.848Z,58.08
2022-09-15T22:31:19.032Z,58.41
2022-09-15T22:34:21.896Z,58.34
2022-09-15T22:37:27.586Z,57.86
2022-09-15T22:40:30.356Z,58.02
2022-09-15T22:43:33.303Z,57.89
2022-09-15T22:46:37.373Z,58.00
2022-09-15T22:49:40.030Z,58.53
2022-09-15T22:52:42.692Z,58.97
2022-09-15T22:55:45.508Z,61.21
2022-09-15T22:58:49.326Z,60.73
2022-09-15T23:01:53.418Z,61.04
2022-09-15T23:04:56.263Z,61.32
2022-09-15T23:07:58.962Z,61.19
2022-09-15T23:11:02.760Z,62.20
2022-09-15T23:14:05.488Z,63.21
2022-09-15T23:17:09.584Z,62.58
2022-09-15T23:20:12.342Z,61.72
2022-09-15T23:23:14.972Z,61.55
2022-09-15T23:26:18.610Z,62.40
2022-09-15T23:29:21.259Z,63.47
2022-09-15T23:32:25.315Z,63.47
2022-09-15T23:35:27.973Z,63.80
2022-09-15T23:38:30.819Z,63.04
2022-09-15T23:41:33.519Z,62.33
2022-09-15T23:44:36.230Z,62.52
2022-09-15T23:47:40.294Z,62.72
2022-09-15T23:50:43.147Z,63.36
2022-09-15T23:53:46.022Z,64.09
2022-09-15T23:56:48.692Z,63.96
2022-09-15T23:59:51.661Z,62.93
